Du har inga inställningar för hoppväder.nu

Hoppväder.nu

Senast uppdaterat 01:08

UTC-tid

2022-05-23 kl. 23:08


Sol och måne

Solen går upp 4:23 och går ner 23:00 (beräknade cirkatider)
Nästa fullmåne blir om 21 dagar (2022-06-14)

METAR

ENRY (Moss, Rygge)
(18 minuter sedan)
ENRY 232250Z AUTO 07003KT 9999NDV BKN051/// 12/08 Q1006=



ESGT (Trollhättan/Vänersborg)
(18 minuter sedan)
ESGT 232250Z AUTO 14007KT 9999 NCD 11/06 Q1006=



ENTO (Sandefjord)
(18 minuter sedan)
ENTO 232250Z AUTO VRB02KT 9999 BKN042/// OVC051/// 13/09 Q1005=



ESIB (Såtenäs)
(18 minuter sedan)
ESIB 232250Z 14007KT CAVOK 11/08 Q1006=



ESOK (Karlstad)
(18 minuter sedan)
ESOK 232250Z AUTO 11005KT 9999 BKN053/// 13/07 Q1007=



TAF

ENRY (Moss, Rygge)
(368 minuter sedan)
ENRY 231700Z 2318/2418 20010KT 9999 SCT030 BECMG 2318/2320 10008KT BECMG 2414/2416 BKN012 TEMPO 2414/2418 4000 SHRA BR BKN007 SCT020CB=



ESGT (Trollhättan/Vänersborg)
ESGT



ENTO (Sandefjord)
(368 minuter sedan)
ENTO 231700Z 2318/2418 16010KT 9999 SCT030 TEMPO 2320/2406 VRB05KT BECMG 2412/2414 BKN012 TEMPO 2412/2417 4000 SHRA BR BKN007 SCT020CB=



ESIB (Såtenäs)
(168 minuter sedan)
ESIB 232020Z 2321/2406 10005KT CAVOK RMK MIL=



ESOK (Karlstad)
ESOK





Kodnycklar till TAF och METAR






LHP

(Näsinge är område se21e i Delområde 1)

Prognos är inte uppdaterad




Preliminär prognos

ÖVERSIKTLIG PROGNOS FÖR OMRÅDE se2 UTFÄRDAD 231339
GÄLLANDE DEN 24 MAJ 2022 MELLAN 04 OCH 16 UTC


Väderöversikt
En frontzon rör sig in söderifrån under dagen.


Delområde se21

Sikt/Väder/Moln
04-08UTC: Område se21c,se21b,se21g,se21o: Sikt >8km. Molnbas >2000ft.

04-12UTC: Område se21d,se21a,se21h,se21f,se21e,se21l,se21k,se21i,se21n,se21m: Sikt >8km. Molnbas >2000ft.

04-16UTC: Område se21j: Sikt >8km. Molnbas >2000ft.

08-12UTC: Område se21c,se21b,se21g,se21o: Sikt 5km - >8km i regnskurar, regn. Molnbas 1500ft - >2000ft.

12-16UTC: Område se21e,se21i: Sikt >8km, lokalt 5km - 8km i regn, regnskurar. Molnbas >2000ft, lokalt 1500ft - 2000ft.
Område se21d,se21h,se21k,se21m: Sikt 5km - >8km i regnskurar, regn. Molnbas 1500ft - >2000ft.
Område se21c,se21b,se21g,se21o: Sikt >8km i regn, lokalt 1.5km - 3km i regnskurar. Molnbas >2000ft, lokalt 1000ft - 1500ft.
Område se21a,se21f,se21l,se21n: Sikt 1.5km - >8km i regnskurar, regn. Molnbas 1000ft - >2000ft.


CB/TCU Moln
04-08UTC: Område se21c,se21b,se21g,se21o: Väntas inte förekomma under perioden

04-12UTC: Område se21d,se21a,se21h,se21f,se21e,se21l,se21k,se21i,se21n,se21m: Väntas inte förekomma under perioden

04-16UTC: Område se21j: Väntas inte förekomma under perioden

08-16UTC: Område se21c,se21b,se21g,se21o: isol embd cb

12-16UTC: Område se21d,se21a,se21h,se21f,se21e,se21l,se21k,se21i,se21n,se21m: isol embd cb


Vind vid marken
04-08UTC: Område se21f: O-SO/5-15 knop, byar upp till 25 knop.
Område se21d: O-SO/4-11 knop, byar upp till 21 knop.
Område se21j: O-SO/4-15 knop, byar upp till 24 knop.
Område se21m: O-SO/0-20 knop, byar upp till 27 knop.
Område se21b: O-SO/9-24 knop, byar upp till 30 knop.
Område se21c: O-SO/10-27 knop, byar upp till 34 knop.
Område se21h: O-SO/3-19 knop, byar upp till 25 knop.
Område se21n: O-SO/5-11 knop, byar upp till 25 knop.
Område se21k: O-SO/5-14 knop, byar upp till 26 knop.
Område se21g: O-SO/7-15 knop, byar upp till 26 knop.
Område se21a: O-SO/11-24 knop, byar upp till 30 knop.
Område se21i: O-SO/4-17 knop, byar upp till 24 knop.
Område se21o: O-SO/7-13 knop, byar upp till 27 knop.
Område se21e: O-SO/6-17 knop, byar upp till 24 knop.
Område se21l: O-SO/5-13 knop, byar upp till 25 knop.

08-12UTC: Område se21l: SO/9-17 knop, byar upp till 31 knop.
Område se21b: SO/13-24 knop, byar upp till 34 knop.
Område se21j: O-SO/7-17 knop, byar upp till 28 knop.
Område se21o: SO/11-19 knop, byar upp till 34 knop.
Område se21d: O-SO/7-14 knop, byar upp till 27 knop.
Område se21k: SO/8-18 knop, byar upp till 31 knop.
Område se21n: SO/9-16 knop, byar upp till 32 knop.
Område se21m: O-SO/8-16 knop, byar upp till 29 knop.
Område se21c: SO/12-24 knop, byar upp till 34 knop.
Område se21g: SO/10-18 knop, byar upp till 34 knop.
Område se21i: O-SO/7-18 knop, byar upp till 29 knop.
Område se21h: O-SO/8-19 knop, byar upp till 28 knop.
Område se21f: SO/10-21 knop, byar upp till 33 knop.
Område se21a: O-SO/14-25 knop, byar upp till 34 knop.
Område se21e: O-SO/9-21 knop, byar upp till 32 knop.

12-16UTC: Område se21k: SO/5-16 knop, byar upp till 32 knop.
Område se21h: O-SO/5-19 knop, byar upp till 30 knop.
Område se21e: SO/4-18 knop, byar upp till 28 knop.
Område se21b: SO-S/6-27 knop, byar upp till 34 knop.
Område se21j: SO/9-19 knop, byar upp till 32 knop.
Område se21m: SO/7-20 knop, byar upp till 32 knop.
Område se21n: SO/4-12 knop, byar upp till 27 knop.
Område se21f: SO/5-10 knop, byar upp till 27 knop.
Område se21o: SO/4-13 knop, byar upp till 26 knop.
Område se21d: O-SO/9-18 knop, byar upp till 30 knop.
Område se21l: SO-S/5-14 knop, byar upp till 29 knop.
Område se21a: SO-S/4-27 knop, byar upp till 34 knop.
Område se21i: SO-S/4-19 knop, byar upp till 30 knop.
Område se21g: SO-S/5-16 knop, byar upp till 25 knop.
Område se21c: SO-S/10-28 knop, byar upp till 37 knop.




Spotting

Hur fungerar spotthjälpen och Vindkartan?

Markvind är ca 0 m/s.



Vindkartan

Senast uppdaterad 01:08




All data kommer från LFV.se